createdAt,value
2022-11-04T00:00:43.053Z,9.55
2022-11-04T00:01:29.881Z,9.60
2022-11-04T00:02:16.750Z,9.61
2022-11-04T00:03:03.680Z,9.64
2022-11-04T00:03:51.171Z,9.56
2022-11-04T00:04:38.068Z,9.56
2022-11-04T00:05:24.887Z,9.53
2022-11-04T00:06:11.807Z,9.53
2022-11-04T00:06:58.941Z,9.52
2022-11-04T00:08:04.169Z,9.53
2022-11-04T00:08:55.787Z,9.52
2022-11-04T00:09:42.606Z,9.47
2022-11-04T00:10:48.070Z,9.47
2022-11-04T00:11:53.607Z,9.45
2022-11-04T00:12:40.438Z,9.47
2022-11-04T00:13:30.356Z,9.44
2022-11-04T00:14:18.613Z,9.48
2022-11-04T00:15:24.768Z,9.48
2022-11-04T00:16:31.082Z,9.46
2022-11-04T00:17:22.486Z,9.37
2022-11-04T00:18:09.372Z,9.39
2022-11-04T00:18:56.583Z,9.43
2022-11-04T00:20:01.830Z,9.40
2022-11-04T00:21:07.429Z,9.37
2022-11-04T00:22:14.250Z,9.35
2022-11-04T00:23:19.765Z,9.33
2022-11-04T00:24:25.297Z,9.37
2022-11-04T00:25:31.352Z,9.35
2022-11-04T00:26:37.047Z,9.34
2022-11-04T00:27:42.615Z,9.29
2022-11-04T00:28:44.762Z,9.29
2022-11-04T00:29:31.607Z,9.29
2022-11-04T00:30:18.492Z,9.28
2022-11-04T00:31:26.188Z,9.27
2022-11-04T00:32:51.653Z,9.26
2022-11-04T00:33:38.501Z,9.27
2022-11-04T00:34:25.273Z,9.32
2022-11-04T00:35:13.154Z,9.35
2022-11-04T00:35:59.983Z,9.28
2022-11-04T00:36:46.837Z,9.28
2022-11-04T00:37:37.341Z,9.25
2022-11-04T00:38:25.831Z,9.26
2022-11-04T00:39:12.585Z,9.26
2022-11-04T00:39:59.466Z,9.24
2022-11-04T00:40:46.407Z,9.17
2022-11-04T00:41:33.226Z,9.20
2022-11-04T00:42:20.154Z,9.20
2022-11-04T00:43:06.960Z,9.19
2022-11-04T00:44:01.022Z,9.18
2022-11-04T00:44:47.894Z,9.22
2022-11-04T00:45:34.690Z,9.16
2022-11-04T00:46:21.756Z,9.10
2022-11-04T00:47:08.571Z,9.13
2022-11-04T00:47:55.377Z,9.11
2022-11-04T00:48:42.244Z,9.13
2022-11-04T00:49:29.564Z,9.18
2022-11-04T00:50:16.514Z,9.20
2022-11-04T00:51:03.384Z,9.14
2022-11-04T00:51:50.352Z,9.15
2022-11-04T00:52:37.153Z,9.13
2022-11-04T00:53:23.962Z,9.09
2022-11-04T00:54:10.786Z,9.17
2022-11-04T00:54:57.804Z,9.17
2022-11-04T00:55:47.820Z,9.18
2022-11-04T00:56:38.295Z,9.16
2022-11-04T00:57:25.290Z,9.14
2022-11-04T00:58:12.155Z,9.17
2022-11-04T00:59:02.133Z,9.11
2022-11-04T00:59:49.004Z,9.11
2022-11-04T01:00:35.851Z,9.06
2022-11-04T01:01:22.779Z,9.05
2022-11-04T01:02:11.087Z,9.11
2022-11-04T01:03:00.276Z,9.12
2022-11-04T01:03:49.847Z,9.11
2022-11-04T01:04:36.765Z,9.06
2022-11-04T01:05:23.768Z,8.98
2022-11-04T01:06:10.620Z,8.98
2022-11-04T01:07:00.029Z,9.02
2022-11-04T01:07:46.847Z,8.98
2022-11-04T01:08:33.808Z,9.03
2022-11-04T01:09:20.869Z,9.05
2022-11-04T01:10:08.308Z,9.07
2022-11-04T01:10:55.158Z,9.01
2022-11-04T01:11:42.134Z,8.98
2022-11-04T01:12:29.007Z,8.94
2022-11-04T01:13:22.029Z,8.93
2022-11-04T01:14:08.959Z,8.93
2022-11-04T01:14:59.381Z,8.92
2022-11-04T01:15:46.253Z,8.92
2022-11-04T01:16:33.607Z,8.98
2022-11-04T01:17:20.444Z,8.96
2022-11-04T01:18:07.593Z,8.94
2022-11-04T01:18:54.627Z,8.96
2022-11-04T01:19:41.568Z,8.94
2022-11-04T01:20:28.423Z,8.96
2022-11-04T01:21:16.866Z,8.95
2022-11-04T01:22:03.741Z,8.99
2022-11-04T01:22:50.537Z,8.96
2022-11-04T01:23:37.706Z,8.99
2022-11-04T01:24:24.527Z,8.96
2022-11-04T01:25:11.423Z,9.03
2022-11-04T01:25:58.262Z,9.02
2022-11-04T01:26:45.327Z,8.96
2022-11-04T01:27:32.150Z,8.91
2022-11-04T01:28:19.019Z,8.93
2022-11-04T01:29:06.088Z,8.91
2022-11-04T01:29:52.986Z,8.94
2022-11-04T01:30:39.924Z,8.92
2022-11-04T01:31:28.676Z,8.91
2022-11-04T01:32:15.468Z,8.92
2022-11-04T01:33:02.419Z,8.92
2022-11-04T01:33:50.649Z,8.90
2022-11-04T01:34:42.380Z,8.90
2022-11-04T01:35:31.563Z,8.85
2022-11-04T01:36:18.740Z,8.90
2022-11-04T01:37:05.575Z,8.87
2022-11-04T01:37:52.389Z,8.86
2022-11-04T01:38:39.682Z,8.79
2022-11-04T01:39:26.550Z,8.75
2022-11-04T01:40:13.421Z,8.73
2022-11-04T01:41:00.355Z,8.70
2022-11-04T01:41:47.200Z,8.71
2022-11-04T01:42:34.142Z,8.66
2022-11-04T01:43:22.462Z,8.66
2022-11-04T01:44:48.073Z,8.65
2022-11-04T01:45:34.990Z,8.69
2022-11-04T01:46:44.538Z,8.73
2022-11-04T01:47:37.881Z,8.75
2022-11-04T01:48:30.195Z,8.67
2022-11-04T01:49:30.417Z,8.65
2022-11-04T01:50:37.438Z,8.72
2022-11-04T01:51:24.272Z,8.71
2022-11-04T01:52:13.942Z,8.76
2022-11-04T01:53:08.220Z,8.72
2022-11-04T01:53:56.220Z,8.71
2022-11-04T01:54:45.162Z,8.72
2022-11-04T01:55:36.455Z,8.73
2022-11-04T01:56:24.148Z,8.72
2022-11-04T01:57:15.217Z,8.74
2022-11-04T01:58:06.837Z,8.77
2022-11-04T01:58:58.096Z,8.78
2022-11-04T01:59:45.016Z,8.75
2022-11-04T02:00:32.899Z,8.73
2022-11-04T02:01:20.024Z,8.69
2022-11-04T02:02:07.681Z,8.73
2022-11-04T02:03:06.950Z,8.75
2022-11-04T02:04:18.066Z,8.75
2022-11-04T02:05:05.302Z,8.76
2022-11-04T02:05:52.326Z,8.83
2022-11-04T02:06:39.171Z,8.79
2022-11-04T02:07:26.270Z,8.75
2022-11-04T02:08:14.771Z,8.72
2022-11-04T02:09:01.615Z,8.68
2022-11-04T02:09:48.543Z,8.65
2022-11-04T02:10:35.694Z,8.68
2022-11-04T02:11:45.695Z,8.67
2022-11-04T02:12:50.861Z,8.69
2022-11-04T02:13:37.776Z,8.74
2022-11-04T02:14:24.659Z,8.72
2022-11-04T02:15:11.611Z,8.75
2022-11-04T02:16:16.769Z,8.71
2022-11-04T02:17:13.319Z,8.72
2022-11-04T02:18:21.816Z,8.67
2022-11-04T02:19:46.178Z,8.66
2022-11-04T02:21:00.021Z,8.68
2022-11-04T02:22:08.011Z,8.68
2022-11-04T02:22:57.638Z,8.69
2022-11-04T02:23:47.553Z,8.72
2022-11-04T02:24:40.533Z,8.72
2022-11-04T02:25:39.572Z,8.68
2022-11-04T02:26:48.343Z,8.62
2022-11-04T02:27:52.406Z,8.63
2022-11-04T02:28:41.936Z,8.63
2022-11-04T02:29:34.998Z,8.62
2022-11-04T02:30:22.241Z,8.59
2022-11-04T02:31:28.028Z,8.57
2022-11-04T02:32:14.739Z,8.59
2022-11-04T02:33:19.707Z,8.66
2022-11-04T02:34:14.870Z,8.63
2022-11-04T02:35:20.914Z,8.63
2022-11-04T02:36:44.285Z,8.58
2022-11-04T02:37:46.065Z,8.69
2022-11-04T02:38:35.358Z,8.73
2022-11-04T02:39:28.078Z,8.68
2022-11-04T02:40:48.571Z,8.67
2022-11-04T02:41:57.536Z,8.67
2022-11-04T02:43:12.355Z,8.76
2022-11-04T02:44:27.057Z,8.65
2022-11-04T02:45:27.336Z,8.68
2022-11-04T02:46:54.696Z,8.66
2022-11-04T02:47:45.782Z,8.65
2022-11-04T02:48:48.073Z,8.68
2022-11-04T02:49:59.644Z,8.65
2022-11-04T02:51:16.588Z,8.74
2022-11-04T02:52:07.684Z,8.79
2022-11-04T02:53:06.834Z,8.80
2022-11-04T02:54:15.192Z,8.78
2022-11-04T02:55:06.331Z,8.74
2022-11-04T02:55:56.003Z,8.77
2022-11-04T02:56:50.065Z,8.75
2022-11-04T02:57:39.057Z,8.76
2022-11-04T02:58:30.982Z,8.78
2022-11-04T02:59:31.626Z,8.75
2022-11-04T03:00:21.061Z,8.81
2022-11-04T03:01:09.814Z,8.83
2022-11-04T03:01:57.357Z,8.82
2022-11-04T03:02:44.912Z,8.83
2022-11-04T03:03:36.270Z,8.83
2022-11-04T03:04:28.116Z,8.83
2022-11-04T03:05:18.639Z,8.87
2022-11-04T03:06:06.750Z,8.84
2022-11-04T03:06:54.604Z,8.77
2022-11-04T03:07:43.075Z,8.81
2022-11-04T03:08:35.413Z,8.79
2022-11-04T03:09:23.592Z,8.80
2022-11-04T03:10:17.463Z,8.76
2022-11-04T03:11:12.137Z,8.83
2022-11-04T03:12:06.447Z,8.84
2022-11-04T03:13:06.024Z,8.83
2022-11-04T03:14:11.953Z,8.78
2022-11-04T03:15:04.711Z,8.77
2022-11-04T03:15:55.922Z,8.77
2022-11-04T03:16:52.222Z,8.74
2022-11-04T03:17:51.224Z,8.73
2022-11-04T03:19:10.093Z,8.72
2022-11-04T03:19:59.547Z,8.77
2022-11-04T03:20:47.234Z,8.71
2022-11-04T03:21:35.794Z,8.75
2022-11-04T03:22:24.404Z,8.67
2022-11-04T03:23:11.781Z,8.66
2022-11-04T03:23:58.773Z,8.63
2022-11-04T03:24:46.550Z,8.64
2022-11-04T03:25:37.785Z,8.62
2022-11-04T03:26:32.887Z,8.66
2022-11-04T03:27:46.633Z,8.69
2022-11-04T03:28:45.676Z,8.72
2022-11-04T03:29:53.259Z,8.75
2022-11-04T03:30:43.590Z,8.73
2022-11-04T03:31:41.135Z,8.72
2022-11-04T03:32:39.792Z,8.71
2022-11-04T03:33:45.398Z,8.70
2022-11-04T03:34:32.439Z,8.65
2022-11-04T03:35:19.877Z,8.58
2022-11-04T03:36:08.971Z,8.58
2022-11-04T03:36:55.852Z,8.53
2022-11-04T03:37:43.903Z,8.55
2022-11-04T03:38:31.008Z,8.58
2022-11-04T03:39:17.838Z,8.63
2022-11-04T03:40:05.345Z,8.65
2022-11-04T03:40:52.380Z,8.58
2022-11-04T03:41:44.174Z,8.51
2022-11-04T03:42:32.616Z,8.46
2022-11-04T03:43:25.862Z,8.48
2022-11-04T03:44:12.865Z,8.44
2022-11-04T03:45:00.121Z,8.41
2022-11-04T03:45:47.017Z,8.41
2022-11-04T03:46:34.346Z,8.40
2022-11-04T03:47:24.674Z,8.45
2022-11-04T03:48:12.442Z,8.41
2022-11-04T03:49:00.556Z,8.39
2022-11-04T03:49:48.777Z,8.38
2022-11-04T03:50:43.416Z,8.47
2022-11-04T03:51:30.331Z,8.48
2022-11-04T03:52:18.318Z,8.47
2022-11-04T03:53:05.183Z,8.43
2022-11-04T03:53:52.135Z,8.40
2022-11-04T03:54:39.055Z,8.39
2022-11-04T03:55:35.093Z,8.40
2022-11-04T03:56:21.919Z,8.45
2022-11-04T03:57:43.092Z,8.49
2022-11-04T03:58:41.833Z,8.50
2022-11-04T03:59:42.110Z,8.47
2022-11-04T04:00:35.978Z,8.49
2022-11-04T04:01:37.844Z,8.46
2022-11-04T04:02:50.811Z,8.50
2022-11-04T04:03:49.157Z,8.59
2022-11-04T04:04:39.454Z,8.60
2022-11-04T04:05:33.628Z,8.59
2022-11-04T04:06:25.765Z,8.56
2022-11-04T04:07:18.385Z,8.55
2022-11-04T04:08:31.636Z,8.53
2022-11-04T04:09:28.338Z,8.52
2022-11-04T04:10:40.680Z,8.52
2022-11-04T04:11:33.512Z,8.57
2022-11-04T04:12:38.969Z,8.57
2022-11-04T04:13:51.247Z,8.58
2022-11-04T04:14:44.481Z,8.53
2022-11-04T04:15:44.439Z,8.50
2022-11-04T04:16:43.986Z,8.52
2022-11-04T04:17:36.910Z,8.64
2022-11-04T04:18:32.404Z,8.64
2022-11-04T04:19:24.293Z,8.69
2022-11-04T04:20:17.718Z,8.67
2022-11-04T04:21:07.424Z,8.61
2022-11-04T04:22:03.105Z,8.59
2022-11-04T04:23:02.446Z,8.64
2022-11-04T04:24:09.914Z,8.65
2022-11-04T04:25:17.527Z,8.69
2022-11-04T04:26:45.657Z,8.66
2022-11-04T04:27:33.131Z,8.65
2022-11-04T04:28:20.734Z,8.66
2022-11-04T04:29:08.385Z,8.66
2022-11-04T04:29:55.564Z,8.66
2022-11-04T04:30:42.996Z,8.65
2022-11-04T04:31:49.100Z,8.66
2022-11-04T04:32:58.998Z,8.62
2022-11-04T04:33:45.833Z,8.55
2022-11-04T04:34:33.952Z,8.57
2022-11-04T04:35:44.034Z,8.52
2022-11-04T04:36:33.591Z,8.50
2022-11-04T04:37:23.629Z,8.54
2022-11-04T04:38:34.908Z,8.58
2022-11-04T04:39:43.721Z,8.54
2022-11-04T04:40:50.030Z,8.49
2022-11-04T04:41:55.681Z,8.48
2022-11-04T04:43:01.139Z,8.46
2022-11-04T04:44:06.424Z,8.49
2022-11-04T04:45:05.827Z,8.45
2022-11-04T04:45:54.363Z,8.42
2022-11-04T04:46:42.409Z,8.35
2022-11-04T04:47:36.690Z,8.32
2022-11-04T04:48:24.376Z,8.34
2022-11-04T04:49:11.361Z,8.32
2022-11-04T04:50:00.095Z,8.30
2022-11-04T04:50:49.564Z,8.30
2022-11-04T04:51:40.085Z,8.28
2022-11-04T04:52:33.469Z,8.26
2022-11-04T04:53:20.286Z,8.26
2022-11-04T04:54:07.697Z,8.30
2022-11-04T04:54:54.616Z,8.33
2022-11-04T04:55:41.913Z,8.30
2022-11-04T04:56:31.505Z,8.26
2022-11-04T04:57:18.437Z,8.32
2022-11-04T04:58:05.238Z,8.32
2022-11-04T04:58:52.151Z,8.33
2022-11-04T04:59:39.037Z,8.36
2022-11-04T05:00:26.535Z,8.36
2022-11-04T05:01:14.139Z,8.39
2022-11-04T05:02:01.130Z,8.41
2022-11-04T05:02:49.209Z,8.47
2022-11-04T05:03:38.756Z,8.52
2022-11-04T05:04:29.303Z,8.54
2022-11-04T05:05:16.848Z,8.54
2022-11-04T05:06:03.727Z,8.55
2022-11-04T05:06:50.637Z,8.57
2022-11-04T05:07:37.491Z,8.58
2022-11-04T05:08:24.353Z,8.59
2022-11-04T05:09:11.174Z,8.64
2022-11-04T05:09:58.070Z,8.64
2022-11-04T05:10:44.932Z,8.61
2022-11-04T05:11:31.896Z,8.60
2022-11-04T05:12:18.946Z,8.61
2022-11-04T05:13:24.328Z,8.63
2022-11-04T05:14:11.224Z,8.58
2022-11-04T05:14:58.095Z,8.57
2022-11-04T05:15:45.315Z,8.66
2022-11-04T05:16:35.407Z,8.67
2022-11-04T05:17:24.898Z,8.73
2022-11-04T05:18:11.930Z,8.79
2022-11-04T05:18:58.879Z,8.81
2022-11-04T05:19:45.742Z,8.86
2022-11-04T05:20:34.540Z,8.89
2022-11-04T05:21:21.478Z,8.84
2022-11-04T05:22:08.325Z,8.85
2022-11-04T05:22:55.503Z,8.79
2022-11-04T05:23:42.356Z,8.79
2022-11-04T05:24:29.238Z,8.79
2022-11-04T05:25:16.476Z,8.83
2022-11-04T05:26:03.637Z,8.84
2022-11-04T05:26:50.534Z,8.85
2022-11-04T05:27:37.766Z,8.83
2022-11-04T05:28:24.687Z,8.78
2022-11-04T05:29:12.621Z,8.79
2022-11-04T05:29:59.415Z,8.85
2022-11-04T05:30:46.215Z,8.79
2022-11-04T05:31:33.155Z,8.75
2022-11-04T05:32:20.007Z,8.79
2022-11-04T05:33:08.055Z,8.76
2022-11-04T05:33:56.070Z,8.77
2022-11-04T05:34:42.893Z,8.75
2022-11-04T05:35:29.968Z,8.74
2022-11-04T05:36:17.653Z,8.72
2022-11-04T05:37:04.530Z,8.67
2022-11-04T05:37:51.408Z,8.66
2022-11-04T05:38:39.302Z,8.70
2022-11-04T05:39:26.155Z,8.66
2022-11-04T05:40:13.036Z,8.70
2022-11-04T05:40:59.919Z,8.73
2022-11-04T05:41:46.838Z,8.72
2022-11-04T05:42:33.767Z,8.70
2022-11-04T05:43:20.748Z,8.62
2022-11-04T05:44:09.778Z,8.61
2022-11-04T05:44:56.595Z,8.63
2022-11-04T05:45:43.414Z,8.61
2022-11-04T05:46:31.127Z,8.62
2022-11-04T05:47:17.935Z,8.64
2022-11-04T05:48:05.806Z,8.65
2022-11-04T05:48:52.836Z,8.68
2022-11-04T05:49:39.701Z,8.73
2022-11-04T05:50:26.627Z,8.74
2022-11-04T05:51:15.330Z,8.74
2022-11-04T05:52:02.230Z,8.73
2022-11-04T05:52:49.963Z,8.73
2022-11-04T05:53:36.753Z,8.71
2022-11-04T05:54:23.842Z,8.71
2022-11-04T05:55:10.802Z,8.74
2022-11-04T05:55:57.638Z,8.74
2022-11-04T05:56:44.495Z,8.72
2022-11-04T05:57:31.358Z,8.70
2022-11-04T05:58:18.360Z,8.72
2022-11-04T05:59:05.216Z,8.70
2022-11-04T05:59:52.037Z,8.69
2022-11-04T06:00:38.867Z,8.72
2022-11-04T06:01:36.974Z,8.71
2022-11-04T06:02:23.915Z,8.77
2022-11-04T06:03:13.703Z,8.79
2022-11-04T06:04:04.466Z,8.78
2022-11-04T06:04:51.343Z,8.78
2022-11-04T06:05:38.150Z,8.77
2022-11-04T06:06:26.303Z,8.82
2022-11-04T06:07:13.542Z,8.88
2022-11-04T06:08:00.387Z,8.92
2022-11-04T06:08:47.237Z,9.00
2022-11-04T06:09:40.391Z,9.03
2022-11-04T06:10:27.360Z,9.06
2022-11-04T06:11:14.282Z,9.05
2022-11-04T06:12:01.080Z,9.09
2022-11-04T06:12:47.991Z,9.05
2022-11-04T06:13:34.918Z,9.03
2022-11-04T06:14:21.831Z,9.01
2022-11-04T06:15:09.270Z,9.04
2022-11-04T06:15:56.130Z,9.10
2022-11-04T06:16:43.112Z,9.13
2022-11-04T06:17:29.964Z,9.18
2022-11-04T06:18:16.762Z,9.22
2022-11-04T06:19:07.754Z,9.23
2022-11-04T06:19:57.731Z,9.24
2022-11-04T06:20:44.556Z,9.25
2022-11-04T06:21:32.683Z,9.26
2022-11-04T06:22:20.002Z,9.23
2022-11-04T06:23:06.971Z,9.31
2022-11-04T06:23:57.038Z,9.34
2022-11-04T06:24:43.875Z,9.34
2022-11-04T06:25:31.563Z,9.36
2022-11-04T06:26:20.740Z,9.36
2022-11-04T06:27:10.940Z,9.35
2022-11-04T06:27:57.806Z,9.42
2022-11-04T06:28:44.672Z,9.40
2022-11-04T06:29:31.624Z,9.47
2022-11-04T06:30:18.563Z,9.49
2022-11-04T06:31:07.950Z,9.51
2022-11-04T06:31:54.760Z,9.50
2022-11-04T06:32:41.705Z,9.53
2022-11-04T06:33:35.414Z,9.51
2022-11-04T06:34:23.459Z,9.55
2022-11-04T06:35:10.422Z,9.59
2022-11-04T06:36:01.017Z,9.61
2022-11-04T06:36:49.057Z,9.55
2022-11-04T06:37:35.945Z,9.53
2022-11-04T06:38:22.719Z,9.58
2022-11-04T06:39:09.600Z,9.57
2022-11-04T06:39:56.423Z,9.57
2022-11-04T06:40:43.329Z,9.63
2022-11-04T06:41:30.204Z,9.64
2022-11-04T06:42:17.107Z,9.65
2022-11-04T06:43:04.387Z,9.66
2022-11-04T06:43:51.257Z,9.67
2022-11-04T06:44:38.165Z,9.72
2022-11-04T06:45:25.014Z,9.78
2022-11-04T06:46:26.769Z,9.81
2022-11-04T06:47:13.816Z,9.86
2022-11-04T06:48:00.817Z,9.88
2022-11-04T06:48:47.597Z,9.87
2022-11-04T07:06:22.582Z,10.25
2022-11-04T07:07:09.488Z,10.25
2022-11-04T07:07:56.841Z,9.82
2022-11-04T07:08:43.764Z,9.84
2022-11-04T07:09:30.881Z,9.87
2022-11-04T07:10:17.821Z,9.89
2022-11-04T07:11:04.750Z,9.96
2022-11-04T07:11:51.660Z,9.98
2022-11-04T07:12:38.458Z,9.96
2022-11-04T07:13:25.253Z,9.91
2022-11-04T07:14:12.720Z,9.96
2022-11-04T07:14:59.761Z,10.00
2022-11-04T07:15:46.646Z,9.92
2022-11-04T07:16:33.457Z,9.95
2022-11-04T07:17:20.794Z,9.88
2022-11-04T07:18:07.973Z,9.94
2022-11-04T07:18:55.620Z,9.97
2022-11-04T07:19:42.514Z,10.01
2022-11-04T07:20:29.601Z,9.99
2022-11-04T07:21:16.702Z,10.00
2022-11-04T07:22:03.573Z,10.04
2022-11-04T07:22:50.476Z,10.02
2022-11-04T07:23:37.602Z,9.97
2022-11-04T07:24:24.549Z,9.89
2022-11-04T07:25:11.593Z,9.81
2022-11-04T07:26:02.920Z,9.80
2022-11-04T07:26:49.947Z,9.82
2022-11-04T07:27:36.855Z,9.81
2022-11-04T07:28:23.768Z,9.86
2022-11-04T07:29:11.440Z,9.90
2022-11-04T07:29:58.379Z,9.91
2022-11-04T07:30:45.302Z,9.89
2022-11-04T07:31:32.470Z,9.92
2022-11-04T07:32:19.495Z,9.91
2022-11-04T07:33:06.428Z,9.87
2022-11-04T07:33:54.242Z,9.81
2022-11-04T07:34:41.146Z,9.79
2022-11-04T07:35:28.038Z,9.83
2022-11-04T07:36:14.985Z,9.81
2022-11-04T07:37:01.847Z,9.67
2022-11-04T07:37:48.788Z,9.74
2022-11-04T07:38:35.778Z,9.76
2022-11-04T07:39:22.614Z,9.79
2022-11-04T07:40:10.545Z,9.75
2022-11-04T07:40:58.500Z,9.79
2022-11-04T07:41:45.508Z,9.82
2022-11-04T07:42:32.592Z,9.84
2022-11-04T07:43:19.464Z,9.84
2022-11-04T07:44:06.291Z,9.76
2022-11-04T07:44:53.139Z,9.73
2022-11-04T07:45:40.260Z,9.72
2022-11-04T07:46:27.336Z,9.72
2022-11-04T07:47:14.627Z,9.74
2022-11-04T07:48:01.468Z,9.78
2022-11-04T07:48:48.596Z,9.71
2022-11-04T07:49:35.549Z,9.74
2022-11-04T07:50:22.534Z,9.72
2022-11-04T07:51:16.554Z,9.76
2022-11-04T07:52:07.210Z,9.81
2022-11-04T07:52:54.062Z,9.80
2022-11-04T07:53:41.006Z,9.76
2022-11-04T07:54:28.110Z,9.62
2022-11-04T07:55:18.734Z,9.61
2022-11-04T07:56:06.266Z,9.61
2022-11-04T07:56:53.165Z,9.66
2022-11-04T07:57:40.213Z,9.70
2022-11-04T07:58:27.235Z,9.62
2022-11-04T07:59:14.134Z,9.61
2022-11-04T08:00:01.836Z,9.63
2022-11-04T08:00:49.246Z,9.68
2022-11-04T08:01:37.419Z,9.72
2022-11-04T08:02:27.737Z,9.75
2022-11-04T08:03:20.915Z,9.74
2022-11-04T08:04:22.102Z,9.77
2022-11-04T08:05:09.474Z,9.70
2022-11-04T08:06:01.569Z,9.74
2022-11-04T08:06:55.337Z,9.73
2022-11-04T08:07:45.788Z,9.74
2022-11-04T08:08:32.854Z,9.80
2022-11-04T08:09:20.532Z,9.86
2022-11-04T08:10:08.806Z,9.81
2022-11-04T08:11:08.765Z,9.82
2022-11-04T08:11:58.532Z,9.76
2022-11-04T08:12:45.497Z,9.87
2022-11-04T08:13:33.998Z,9.92
2022-11-04T08:14:21.083Z,9.88
2022-11-04T08:15:08.541Z,9.87
2022-11-04T08:15:55.826Z,9.88
2022-11-04T08:16:42.877Z,9.92
2022-11-04T08:17:29.914Z,9.95
2022-11-04T08:18:16.882Z,9.92
2022-11-04T08:19:03.922Z,9.86
2022-11-04T08:19:50.929Z,9.83
2022-11-04T08:20:38.631Z,9.76
2022-11-04T08:21:25.502Z,9.79
2022-11-04T08:22:12.548Z,9.86
2022-11-04T08:22:59.433Z,9.87
2022-11-04T08:23:47.979Z,9.89
2022-11-04T08:24:35.601Z,9.89
2022-11-04T08:25:23.559Z,9.90
2022-11-04T08:26:12.073Z,9.93
2022-11-04T08:26:58.975Z,9.91
2022-11-04T08:27:46.239Z,9.92
2022-11-04T08:28:33.238Z,9.87
2022-11-04T08:29:20.168Z,9.89
2022-11-04T08:30:07.736Z,9.96
2022-11-04T08:31:03.327Z,9.98
2022-11-04T08:31:50.209Z,9.99
2022-11-04T08:32:37.183Z,10.00
2022-11-04T08:33:25.357Z,10.02
2022-11-04T08:34:12.395Z,9.99
2022-11-04T08:34:59.264Z,9.98
2022-11-04T08:35:46.312Z,9.93
2022-11-04T08:36:36.899Z,9.93
2022-11-04T08:37:23.649Z,9.96
2022-11-04T08:38:10.601Z,9.93
2022-11-04T08:38:58.091Z,9.96
2022-11-04T08:39:45.101Z,9.97
2022-11-04T08:40:32.408Z,9.94
2022-11-04T08:41:22.398Z,9.94
2022-11-04T08:42:10.413Z,10.02
2022-11-04T08:42:57.371Z,10.10
2022-11-04T08:43:44.347Z,10.16
2022-11-04T08:44:31.312Z,10.18
2022-11-04T08:45:18.452Z,10.07
2022-11-04T08:46:07.155Z,10.07
2022-11-04T08:46:54.096Z,10.08
2022-11-04T08:47:41.107Z,10.13
2022-11-04T08:48:28.754Z,10.20
2022-11-04T08:49:20.748Z,10.22
2022-11-04T08:50:08.245Z,10.26
2022-11-04T08:50:59.140Z,10.22
2022-11-04T08:51:49.272Z,10.21
2022-11-04T08:52:36.174Z,10.31
2022-11-04T08:53:23.159Z,10.38
2022-11-04T08:54:10.984Z,10.34
2022-11-04T08:54:58.009Z,10.30
2022-11-04T08:55:45.139Z,10.32
2022-11-04T08:56:34.883Z,10.38
2022-11-04T08:57:21.878Z,10.47
2022-11-04T08:58:09.100Z,10.36
2022-11-04T08:58:58.475Z,10.35
2022-11-04T08:59:45.388Z,10.27
2022-11-04T09:00:33.365Z,10.34
2022-11-04T09:01:21.627Z,10.35
2022-11-04T09:02:13.830Z,10.38
2022-11-04T09:03:00.989Z,10.30
2022-11-04T09:03:48.629Z,10.25
2022-11-04T09:04:35.642Z,10.27
2022-11-04T09:05:23.052Z,10.27
2022-11-04T09:06:13.878Z,10.30
2022-11-04T09:07:07.835Z,10.27
2022-11-04T09:07:55.757Z,10.23
2022-11-04T09:08:43.673Z,10.29
2022-11-04T09:09:30.666Z,10.41
2022-11-04T09:10:17.669Z,10.44
2022-11-04T09:11:07.738Z,10.37
2022-11-04T09:11:55.403Z,10.35
2022-11-04T09:12:43.350Z,10.28
2022-11-04T09:13:31.646Z,10.25
2022-11-04T09:14:21.014Z,10.34
2022-11-04T09:15:08.587Z,10.39
2022-11-04T09:15:55.646Z,10.35
2022-11-04T09:16:42.661Z,10.38
2022-11-04T09:17:29.917Z,10.36
2022-11-04T09:18:16.949Z,10.38
2022-11-04T09:19:04.363Z,10.37
2022-11-04T09:19:51.470Z,10.41
2022-11-04T09:20:42.412Z,10.44
2022-11-04T09:21:29.654Z,10.52
2022-11-04T09:22:16.688Z,10.47
2022-11-04T09:23:04.333Z,10.54
2022-11-04T09:23:51.395Z,10.48
2022-11-04T09:24:38.357Z,10.48
2022-11-04T09:25:25.409Z,10.55
2022-11-04T09:26:14.925Z,10.46
2022-11-04T09:27:01.945Z,10.51
2022-11-04T09:27:49.310Z,10.50
2022-11-04T09:28:36.889Z,10.48
2022-11-04T09:29:23.871Z,10.44
2022-11-04T09:30:11.606Z,10.45
2022-11-04T09:30:58.544Z,10.51
2022-11-04T09:31:45.509Z,10.50
2022-11-04T09:32:32.462Z,10.47
2022-11-04T09:33:19.426Z,10.53
2022-11-04T09:34:06.368Z,10.55
2022-11-04T09:34:53.345Z,10.59
2022-11-04T09:35:40.279Z,10.59
2022-11-04T09:36:29.197Z,10.52
2022-11-04T09:37:16.361Z,10.41
2022-11-04T09:38:03.400Z,10.40
2022-11-04T09:38:50.374Z,10.37
2022-11-04T09:39:37.308Z,10.40
2022-11-04T09:40:25.318Z,10.48
2022-11-04T09:41:24.852Z,10.33
2022-11-04T09:42:30.475Z,10.34
2022-11-04T09:43:45.622Z,10.40
2022-11-04T09:44:32.508Z,10.44
2022-11-04T09:45:22.062Z,10.38
2022-11-04T09:46:11.872Z,10.40
2022-11-04T09:47:01.381Z,10.44
2022-11-04T09:47:50.634Z,10.52
2022-11-04T09:48:52.559Z,10.59
2022-11-04T09:49:43.018Z,10.62
2022-11-04T09:50:33.786Z,10.63
2022-11-04T09:51:48.018Z,10.58
2022-11-04T09:52:32.119Z,10.54
2022-11-04T09:53:23.200Z,10.53
2022-11-04T09:54:24.027Z,10.57
2022-11-04T09:55:13.686Z,10.60
2022-11-04T09:56:03.681Z,10.66
2022-11-04T09:56:51.748Z,10.63
2022-11-04T09:57:38.781Z,10.63
2022-11-04T09:58:25.901Z,10.67
2022-11-04T09:59:20.424Z,10.62
2022-11-04T10:00:10.819Z,10.69
2022-11-04T10:01:13.312Z,10.65
2022-11-04T10:02:20.736Z,10.65
2022-11-04T10:03:09.539Z,10.63
2022-11-04T10:04:08.766Z,10.69
2022-11-04T10:05:13.819Z,10.73
2022-11-04T10:06:06.730Z,10.82
2022-11-04T10:07:12.193Z,10.92
2022-11-04T10:08:14.304Z,10.87
2022-11-04T10:09:01.155Z,10.92
2022-11-04T10:10:09.784Z,11.08
2022-11-04T10:11:07.719Z,11.11
2022-11-04T10:12:16.273Z,11.21
2022-11-04T10:13:12.319Z,11.18
2022-11-04T10:14:12.069Z,11.21
2022-11-04T10:15:35.573Z,11.13
2022-11-04T10:16:37.443Z,11.21
2022-11-04T10:17:45.998Z,11.15
2022-11-04T10:18:51.190Z,11.10
2022-11-04T10:19:54.533Z,11.02
2022-11-04T10:21:01.232Z,11.00
2022-11-04T10:22:24.013Z,11.10
2022-11-04T10:23:23.895Z,11.14
2022-11-04T10:24:21.042Z,11.07
2022-11-04T10:25:20.876Z,11.23
2022-11-04T10:26:18.332Z,11.22
2022-11-04T10:27:11.108Z,11.23
2022-11-04T10:27:58.586Z,11.28
2022-11-04T10:28:57.682Z,11.27
2022-11-04T10:29:47.690Z,11.35
2022-11-04T10:30:35.275Z,11.45
2022-11-04T10:31:22.306Z,11.48
2022-11-04T10:32:22.255Z,11.54
2022-11-04T10:33:22.137Z,11.59
2022-11-04T10:34:27.145Z,11.49
2022-11-04T10:35:16.454Z,11.51
2022-11-04T10:36:08.317Z,11.52
2022-11-04T10:36:56.417Z,11.54
2022-11-04T10:37:43.623Z,11.57
2022-11-04T10:38:42.671Z,11.55
2022-11-04T10:39:31.750Z,11.70
2022-11-04T10:40:30.143Z,11.82
2022-11-04T10:41:37.189Z,11.87
2022-11-04T10:42:24.107Z,11.93
2022-11-04T10:43:15.967Z,11.89
2022-11-04T10:44:07.097Z,11.83
2022-11-04T10:44:54.175Z,11.74
2022-11-04T10:45:48.269Z,11.79
2022-11-04T10:46:38.846Z,11.76
2022-11-04T10:47:32.381Z,11.69
2022-11-04T10:48:26.484Z,11.68
2022-11-04T10:49:28.574Z,11.74
2022-11-04T10:50:31.958Z,11.87
2022-11-04T10:51:24.252Z,11.85
2022-11-04T10:52:11.701Z,11.73
2022-11-04T10:53:32.286Z,11.75
2022-11-04T10:54:19.318Z,11.87
2022-11-04T10:55:19.221Z,11.69
2022-11-04T10:56:12.398Z,11.62
2022-11-04T10:56:59.572Z,11.81
2022-11-04T10:57:46.549Z,11.80
2022-11-04T10:58:37.132Z,11.85
2022-11-04T10:59:31.973Z,11.88
2022-11-04T11:00:42.762Z,11.88
2022-11-04T11:01:32.644Z,12.10
2022-11-04T11:02:20.668Z,12.12
2022-11-04T11:03:30.422Z,12.08
2022-11-04T11:04:26.035Z,12.20
2022-11-04T11:05:18.737Z,12.32
2022-11-04T11:06:15.522Z,12.37
2022-11-04T11:07:08.381Z,12.26
2022-11-04T11:07:58.236Z,12.27
2022-11-04T11:08:45.381Z,12.37
2022-11-04T11:09:34.556Z,12.24
2022-11-04T11:10:32.101Z,12.05
2022-11-04T11:11:39.587Z,12.11
2022-11-04T11:12:51.083Z,12.24
2022-11-04T11:13:41.297Z,12.35
2022-11-04T11:14:28.199Z,12.39
2022-11-04T11:15:32.866Z,12.35
2022-11-04T11:16:28.216Z,12.48
2022-11-04T11:17:15.182Z,12.43
2022-11-04T11:18:07.995Z,12.27
2022-11-04T11:19:20.405Z,12.42
2022-11-04T11:20:19.761Z,12.43
2022-11-04T11:21:10.979Z,12.51
2022-11-04T11:21:57.934Z,12.43
2022-11-04T11:22:46.474Z,12.55
2022-11-04T11:23:47.748Z,12.55
2022-11-04T11:24:35.515Z,12.37
2022-11-04T11:25:31.000Z,12.51
2022-11-04T11:26:22.506Z,12.53
2022-11-04T11:27:12.622Z,12.48
2022-11-04T11:28:07.634Z,12.56
2022-11-04T11:29:02.549Z,12.48
2022-11-04T11:29:56.387Z,12.41
2022-11-04T11:30:46.861Z,12.32
2022-11-04T11:31:37.168Z,12.29
2022-11-04T11:32:35.110Z,12.12
2022-11-04T11:33:39.102Z,12.19
2022-11-04T11:34:27.256Z,12.22
2022-11-04T11:35:18.152Z,12.23
2022-11-04T11:36:21.007Z,12.27
2022-11-04T11:37:20.479Z,12.17